Time;durP1;ratioP1;P1;durP2;ratioP2;P2;SDS_P1;SDS_P2;PMS_P1;PMS_P2;Temp;Humidity;BMP_temperature;BMP_pressure;BME280_temperature;BME280_humidity;BME280_pressure;Samples;Min_cycle;Max_cycle;Signal;HPM_P1;HPM_P2
2024/04/08 00:00:12;;;;;;;6.73;6.23;;;14.60;99.90;;;;;;6880518;25;20469;-56
2024/04/08 00:03:19;;;;;;;6.70;5.60;;;14.60;99.90;;;;;;6877345;25;20813;-57
2024/04/08 00:06:38;;;;;;;6.37;5.77;;;14.60;99.90;;;;;;6879426;25;20531;-57
2024/04/08 00:09:49;;;;;;;8.13;5.63;;;14.60;99.90;;;;;;6880134;25;20458;-57
2024/04/08 00:12:54;;;;;;;6.53;6.03;;;14.60;99.90;;;;;;6879542;25;20458;-57
2024/04/08 00:16:04;;;;;;;5.70;5.20;;;14.50;99.90;;;;;;6867026;25;20871;-56
2024/04/08 00:19:09;;;;;;;8.93;5.70;;;14.50;99.90;;;;;;6851196;25;20475;-56
2024/04/08 00:22:30;;;;;;;6.33;5.33;;;14.40;99.90;;;;;;6836882;25;20530;-56
2024/04/08 00:25:34;;;;;;;6.83;6.23;;;14.50;99.90;;;;;;6875850;25;20481;-57
2024/04/08 00:28:44;;;;;;;6.90;6.30;;;14.30;99.90;;;;;;6863465;25;20467;-56
2024/04/08 00:31:49;;;;;;;7.07;5.87;;;14.40;99.90;;;;;;6836772;26;20555;-57
2024/04/08 00:34:57;;;;;;;6.93;6.23;;;14.30;99.90;;;;;;6835262;25;20527;-56
2024/04/08 00:38:06;;;;;;;7.90;6.30;;;14.30;99.90;;;;;;6836462;25;20479;-57
2024/04/08 00:41:11;;;;;;;6.40;5.90;;;14.30;99.90;;;;;;6871976;25;21007;-57
2024/04/08 00:44:25;;;;;;;6.60;6.00;;;14.20;99.90;;;;;;6843824;25;20654;-57
2024/04/08 00:47:33;;;;;;;6.87;6.27;;;14.20;99.90;;;;;;6860953;25;20478;-56
2024/04/08 00:50:40;;;;;;;6.00;5.37;;;14.10;99.90;;;;;;6860734;25;20498;-56
2024/04/08 00:54:04;;;;;;;7.10;6.43;;;14.10;99.90;;;;;;6835165;25;20487;-56
2024/04/08 00:57:10;;;;;;;5.57;5.07;;;14.00;99.90;;;;;;6814177;26;20464;-56
2024/04/08 01:00:27;;;;;;;6.40;5.90;;;14.00;99.90;;;;;;6813970;26;20637;-57
2024/04/08 01:03:32;;;;;;;6.73;6.13;;;14.00;99.90;;;;;;6826881;26;20546;-56
2024/04/08 01:06:39;;;;;;;5.80;5.30;;;13.90;99.90;;;;;;6857199;25;20531;-56
2024/04/08 01:09:59;;;;;;;5.93;5.43;;;13.90;99.90;;;;;;6828772;26;20496;-56
2024/04/08 01:13:09;;;;;;;7.73;6.20;;;13.80;99.90;;;;;;6812335;26;20579;-56
2024/04/08 01:16:14;;;;;;;6.70;6.10;;;13.80;99.90;;;;;;6813734;26;20580;-56
2024/04/08 01:19:23;;;;;;;5.93;5.43;;;13.80;99.90;;;;;;6821570;26;20558;-56
2024/04/08 01:22:30;;;;;;;6.50;5.90;;;13.70;99.90;;;;;;6818634;26;20520;-56
2024/04/08 01:25:54;;;;;;;6.13;5.73;;;13.70;99.90;;;;;;6813176;26;20464;-56
2024/04/08 01:28:57;;;;;;;7.07;6.37;;;13.70;99.90;;;;;;6813429;26;20456;-56
2024/04/08 01:32:06;;;;;;;6.47;5.90;;;13.60;99.90;;;;;;6813005;26;20483;-57
2024/04/08 01:35:12;;;;;;;6.03;5.63;;;13.60;99.90;;;;;;6849281;26;20475;-56
2024/04/08 01:38:21;;;;;;;6.43;5.80;;;13.60;99.90;;;;;;6859270;26;20451;-56
2024/04/08 01:41:45;;;;;;;6.57;5.97;;;13.60;99.90;;;;;;6859157;25;20462;-56
2024/04/08 01:44:53;;;;;;;7.00;6.40;;;13.60;99.90;;;;;;6858879;26;20583;-57
2024/04/08 01:48:05;;;;;;;6.97;6.27;;;13.60;99.90;;;;;;6858793;26;20459;-56
2024/04/08 01:51:27;;;;;;;5.80;5.30;;;13.50;99.90;;;;;;6859034;26;20458;-56
2024/04/08 01:54:30;;;;;;;6.17;5.57;;;13.60;99.90;;;;;;6858717;26;20527;-56
2024/04/08 01:57:44;;;;;;;7.53;5.87;;;13.50;99.90;;;;;;6857250;26;20848;-56
2024/04/08 02:00:49;;;;;;;5.87;5.33;;;13.50;99.90;;;;;;6858961;26;20482;-56
2024/04/08 02:04:02;;;;;;;7.37;6.40;;;13.40;99.90;;;;;;6855475;26;20463;-56
2024/04/08 02:07:09;;;;;;;6.30;5.80;;;13.30;99.90;;;;;;6858897;26;20744;-57
2024/04/08 02:10:18;;;;;;;6.10;5.60;;;13.30;99.90;;;;;;6858395;26;20459;-56
2024/04/08 02:13:32;;;;;;;6.50;5.27;;;13.20;99.90;;;;;;6856930;26;20466;-56
2024/04/08 02:16:35;;;;;;;7.57;6.93;;;13.30;99.90;;;;;;6857943;26;20462;-55
2024/04/08 02:19:50;;;;;;;6.33;5.83;;;13.20;99.90;;;;;;6857997;26;20468;-56
2024/04/08 02:22:54;;;;;;;6.93;6.33;;;13.20;99.90;;;;;;6821095;26;20520;-56
2024/04/08 02:26:04;;;;;;;7.33;5.87;;;13.10;99.90;;;;;;6812277;26;20472;-57
2024/04/08 02:29:29;;;;;;;6.30;5.70;;;13.00;99.90;;;;;;6813585;26;20965;-58
2024/04/08 02:32:34;;;;;;;6.50;6.00;;;13.10;99.90;;;;;;6857372;25;20470;-57
2024/04/08 02:35:42;;;;;;;6.33;5.83;;;13.00;99.90;;;;;;6858583;26;20538;-55
2024/04/08 02:38:46;;;;;;;7.60;6.43;;;13.00;99.90;;;;;;6857234;26;20454;-56
2024/04/08 02:41:54;;;;;;;7.27;6.57;;;12.90;99.90;;;;;;6858305;26;20798;-55
2024/04/08 02:45:15;;;;;;;6.80;6.20;;;12.90;99.90;;;;;;6829182;26;20905;-57
2024/04/08 02:48:20;;;;;;;8.20;6.40;;;12.90;99.90;;;;;;6841474;25;20565;-56
2024/04/08 02:51:35;;;;;;;6.23;5.73;;;12.90;99.90;;;;;;6897682;25;20511;-56
2024/04/08 02:54:38;;;;;;;7.10;6.40;;;12.90;99.90;;;;;;6865282;25;20555;-56
2024/04/08 02:57:51;;;;;;;7.20;6.47;;;12.80;99.90;;;;;;6861888;25;20552;-56
2024/04/08 03:01:10;;;;;;;6.97;6.33;;;12.80;99.90;;;;;;6904026;25;20513;-56
2024/04/08 03:04:17;;;;;;;6.93;6.43;;;12.80;99.90;;;;;;6903371;25;20521;-56
2024/04/08 03:07:23;;;;;;;7.23;6.47;;;12.70;99.90;;;;;;6902079;25;20849;-55
2024/04/08 03:10:33;;;;;;;6.33;5.80;;;12.70;99.90;;;;;;6857368;26;20458;-56
2024/04/08 03:13:45;;;;;;;6.40;5.90;;;12.70;99.90;;;;;;6893037;25;20469;-56
2024/04/08 03:17:05;;;;;;;6.27;5.77;;;12.70;99.90;;;;;;6902602;25;20518;-57
2024/04/08 03:20:13;;;;;;;7.90;6.47;;;12.60;99.90;;;;;;6902902;25;20579;-56
2024/04/08 03:23:20;;;;;;;6.97;6.33;;;12.60;99.90;;;;;;6902885;25;20513;-57
2024/04/08 03:26:23;;;;;;;6.60;6.10;;;12.50;99.90;;;;;;6903570;25;20464;-56
2024/04/08 03:29:31;;;;;;;6.97;6.37;;;12.50;99.90;;;;;;6902559;25;20468;-56
2024/04/08 03:32:38;;;;;;;7.40;5.80;;;12.50;99.90;;;;;;6902910;25;20635;-56
2024/04/08 03:35:56;;;;;;;7.03;6.43;;;12.40;99.90;;;;;;6902345;25;20544;-56
2024/04/08 03:39:04;;;;;;;7.10;6.50;;;12.40;99.90;;;;;;6902094;25;20457;-56
2024/04/08 03:42:21;;;;;;;6.90;6.33;;;12.40;99.90;;;;;;6902819;25;20556;-56
2024/04/08 03:45:27;;;;;;;7.70;6.90;;;12.40;99.90;;;;;;6901952;25;20643;-56
2024/04/08 03:48:42;;;;;;;9.00;7.60;;;12.40;99.90;;;;;;6902357;25;20836;-56
2024/04/08 03:51:46;;;;;;;7.90;7.20;;;12.30;99.90;;;;;;6902424;25;20508;-57
2024/04/08 03:55:00;;;;;;;6.77;6.17;;;12.30;99.90;;;;;;6903691;25;20517;-56
2024/04/08 03:58:04;;;;;;;7.10;6.50;;;12.30;99.90;;;;;;6903180;25;20461;-56
2024/04/08 04:01:12;;;;;;;9.07;7.00;;;12.40;99.90;;;;;;6900065;25;20521;-56
2024/04/08 04:04:29;;;;;;;7.67;7.07;;;12.40;99.90;;;;;;6903456;25;20528;-56
2024/04/08 04:07:37;;;;;;;8.07;7.27;;;12.40;99.90;;;;;;6901314;25;20465;-56
2024/04/08 04:10:44;;;;;;;7.23;6.33;;;12.40;99.90;;;;;;6901388;25;20457;-56
2024/04/08 04:13:56;;;;;;;9.10;6.70;;;12.40;99.90;;;;;;6888026;25;20527;-56
2024/04/08 04:17:04;;;;;;;6.83;6.33;;;12.40;99.90;;;;;;6855511;26;20495;-56
2024/04/08 04:20:21;;;;;;;7.37;6.43;;;12.40;99.90;;;;;;6857927;26;20518;-57
2024/04/08 04:23:28;;;;;;;7.30;6.70;;;12.30;99.90;;;;;;6888043;25;20994;-56
2024/04/08 04:26:32;;;;;;;8.87;6.70;;;12.30;99.90;;;;;;6905294;25;20950;-57
2024/04/08 04:29:40;;;;;;;7.30;6.60;;;12.30;99.90;;;;;;6906031;25;20586;-56
2024/04/08 04:32:47;;;;;;;8.97;5.83;;;12.30;99.90;;;;;;6888385;25;20474;-56
2024/04/08 04:36:03;;;;;;;8.47;6.33;;;12.30;99.90;;;;;;6846078;25;20523;-56
2024/04/08 04:39:10;;;;;;;8.10;7.30;;;12.30;99.90;;;;;;6856925;26;20503;-56
2024/04/08 04:42:31;;;;;;;7.97;6.63;;;12.30;99.90;;;;;;6850303;26;20482;-56
2024/04/08 04:45:33;;;;;;;7.10;6.50;;;12.40;99.90;;;;;;6859608;26;20573;-56
2024/04/08 04:48:41;;;;;;;6.17;5.57;;;12.50;99.90;;;;;;6859351;26;20534;-56
2024/04/08 04:51:53;;;;;;;6.40;5.90;;;12.70;99.90;;;;;;6858100;26;20546;-56
2024/04/08 04:55:05;;;;;;;7.67;6.87;;;12.80;99.90;;;;;;6860650;26;20466;-57
2024/04/08 04:58:07;;;;;;;6.77;6.27;;;13.00;99.90;;;;;;6860747;26;20968;-55
2024/04/08 05:01:13;;;;;;;8.70;7.30;;;13.30;99.90;;;;;;6860319;26;20801;-57
2024/04/08 05:04:17;;;;;;;6.20;5.70;;;13.40;99.90;;;;;;6859719;26;20542;-57
2024/04/08 05:07:44;;;;;;;7.20;5.90;;;13.70;99.90;;;;;;6860844;26;20454;-56
2024/04/08 05:10:53;;;;;;;7.13;6.23;;;13.80;99.90;;;;;;6860729;26;20539;-56
2024/04/08 05:14:01;;;;;;;6.97;5.67;;;14.00;99.90;;;;;;6856931;26;20915;-57
2024/04/08 05:17:05;;;;;;;16.53;8.07;;;14.30;99.90;;;;;;6857378;26;20454;-57
2024/04/08 05:20:12;;;;;;;21.17;8.00;;;14.50;99.90;;;;;;6858071;26;20471;-57
2024/04/08 05:23:25;;;;;;;15.07;8.13;;;14.70;99.90;;;;;;6824319;26;20458;-56
2024/04/08 05:26:33;;;;;;;11.23;6.30;;;15.00;99.90;;;;;;6857567;26;20482;-57
2024/04/08 05:29:42;;;;;;;7.00;6.10;;;15.20;99.90;;;;;;6858464;26;20515;-57
2024/04/08 05:36:18;;;;;;;7.10;6.50;;;15.80;99.90;;;;;;6859471;26;20470;-57
2024/04/08 05:39:43;;;;;;;7.17;6.00;;;16.20;99.90;;;;;;6857342;26;20512;-57
2024/04/08 05:42:47;;;;;;;10.00;5.60;;;16.60;99.90;;;;;;6859427;26;20511;-56
2024/04/08 05:45:55;;;;;;;7.53;6.10;;;17.00;99.90;;;;;;6857123;26;20472;-57
2024/04/08 05:48:57;;;;;;;7.97;5.40;;;17.40;99.90;;;;;;6861620;26;20857;-56
2024/04/08 05:52:12;;;;;;;6.17;5.57;;;17.90;99.40;;;;;;6826583;26;20272;-57
2024/04/08 05:55:27;;;;;;;5.47;4.97;;;18.30;98.10;;;;;;6857307;26;20242;-58
2024/04/08 05:58:33;;;;;;;7.23;5.40;;;18.90;96.70;;;;;;6852314;26;20501;-57
2024/04/08 06:01:40;;;;;;;19.23;12.47;;;19.50;95.20;;;;;;6858137;25;20276;-57
2024/04/08 06:04:45;;;;;;;10.83;7.73;;;19.90;94.10;;;;;;6860132;26;20271;-57
2024/04/08 06:08:09;;;;;;;14.30;8.33;;;20.50;92.70;;;;;;6820356;26;20243;-57
2024/04/08 06:11:29;;;;;;;12.30;10.83;;;21.00;91.20;;;;;;6812104;26;20286;-58
2024/04/08 06:14:37;;;;;;;22.00;14.70;;;21.60;89.80;;;;;;6812591;26;20235;-57
2024/04/08 06:17:41;;;;;;;7.70;6.60;;;22.20;87.00;;;;;;6835998;26;20234;-57
2024/04/08 06:20:58;;;;;;;20.67;16.77;;;22.60;83.80;;;;;;6858868;26;20234;-58
2024/04/08 06:24:06;;;;;;;20.50;12.57;;;23.00;81.30;;;;;;6858022;26;20337;-57
2024/04/08 06:27:19;;;;;;;10.03;7.90;;;23.40;79.20;;;;;;6857561;26;20287;-57
2024/04/08 06:30:22;;;;;;;11.47;7.60;;;23.90;76.50;;;;;;6858293;26;20222;-58
2024/04/08 06:33:32;;;;;;;8.20;6.80;;;24.40;74.60;;;;;;6880609;25;20536;-57
2024/04/08 06:36:36;;;;;;;9.43;5.90;;;25.20;71.70;;;;;;6901999;25;20232;-56
2024/04/08 06:39:45;;;;;;;9.03;5.40;;;26.00;68.30;;;;;;6902102;25;20266;-57
2024/04/08 06:42:57;;;;;;;8.67;5.90;;;26.80;64.50;;;;;;6901764;25;20233;-58
2024/04/08 06:46:00;;;;;;;6.50;5.40;;;27.70;60.80;;;;;;6903557;25;20236;-58
2024/04/08 06:49:10;;;;;;;5.77;5.13;;;28.10;58.20;;;;;;6903340;25;20701;-58
2024/04/08 06:52:17;;;;;;;7.10;6.50;;;28.40;56.80;;;;;;6904175;25;20267;-57
2024/04/08 06:55:32;;;;;;;6.80;5.40;;;28.70;55.80;;;;;;6904058;25;20279;-57
2024/04/08 06:58:56;;;;;;;6.57;5.97;;;29.40;53.90;;;;;;6904783;25;20226;-58
2024/04/08 07:02:03;;;;;;;6.77;6.23;;;30.60;51.10;;;;;;6897632;25;20527;-57
2024/04/08 07:05:18;;;;;;;6.85;5.10;;;31.80;48.70;;;;;;6858450;26;20241;-57
2024/04/08 07:08:22;;;;;;;6.13;5.53;;;32.50;46.20;;;;;;6857642;26;20256;-57
2024/04/08 07:11:30;;;;;;;8.13;5.70;;;32.50;44.50;;;;;;6852351;26;20217;-58
2024/04/08 07:14:56;;;;;;;8.35;6.47;;;32.40;44.40;;;;;;6890721;25;20347;-58
2024/04/08 07:18:00;;;;;;;5.93;5.43;;;32.20;44.30;;;;;;6904216;25;20329;-57
2024/04/08 07:21:09;;;;;;;7.20;5.32;;;32.50;44.00;;;;;;6903136;25;20712;-58
2024/04/08 07:24:23;;;;;;;7.80;6.30;;;33.50;42.50;;;;;;6903420;25;20751;-59
2024/04/08 07:27:26;;;;;;;7.15;6.50;;;35.10;40.10;;;;;;6902678;25;20233;-57
2024/04/08 07:30:46;;;;;;;11.05;6.05;;;36.10;37.60;;;;;;6903485;25;20518;-57
2024/04/08 07:33:50;;;;;;;5.80;5.35;;;36.90;35.60;;;;;;6884994;25;20248;-58
2024/04/08 07:36:58;;;;;;;5.80;4.72;;;37.50;34.50;;;;;;6870094;25;20534;-57
2024/04/08 07:40:08;;;;;;;6.13;5.05;;;37.50;34.00;;;;;;6902857;25;20677;-58
2024/04/08 07:43:21;;;;;;;5.88;5.07;;;37.50;33.30;;;;;;6865136;25;20306;-58
2024/04/08 07:46:54;;;;;;;5.22;4.78;;;37.60;32.60;;;;;;6868737;25;20233;-58
2024/04/08 07:49:59;;;;;;;6.45;5.43;;;37.50;32.40;;;;;;6874323;25;20228;-58
2024/04/08 07:53:12;;;;;;;10.18;5.78;;;37.80;32.30;;;;;;6903114;25;20258;-57
2024/04/08 07:56:27;;;;;;;5.18;4.78;;;37.30;32.30;;;;;;6906641;25;20321;-62
2024/04/08 07:59:31;;;;;;;7.60;5.55;;;37.20;32.20;;;;;;6883063;25;20277;-61
2024/04/08 08:02:44;;;;;;;6.70;5.22;;;36.50;32.80;;;;;;6876504;25;20725;-57
2024/04/08 08:05:53;;;;;;;5.55;4.80;;;37.80;32.00;;;;;;6906730;25;20279;-58
2024/04/08 08:09:10;;;;;;;7.97;5.03;;;39.10;30.70;;;;;;6904547;25;20320;-58
2024/04/08 08:12:30;;;;;;;5.32;4.82;;;39.40;29.50;;;;;;6906321;25;20841;-58
2024/04/08 08:15:38;;;;;;;5.30;4.80;;;40.20;28.70;;;;;;6906598;25;20240;-58
2024/04/08 08:19:00;;;;;;;5.40;4.93;;;40.40;28.20;;;;;;6906529;25;20216;-58
2024/04/08 08:22:14;;;;;;;4.80;4.40;;;39.70;29.20;;;;;;6906701;25;20229;-58
2024/04/08 08:25:28;;;;;;;5.63;4.20;;;39.80;28.90;;;;;;6908830;25;20294;-58
2024/04/08 08:28:35;;;;;;;5.40;4.85;;;40.10;28.50;;;;;;6908549;25;20279;-58
2024/04/08 08:31:40;;;;;;;5.55;4.90;;;41.40;27.90;;;;;;6906299;25;20224;-57
2024/04/08 08:35:00;;;;;;;5.75;4.43;;;42.50;27.20;;;;;;6867329;25;20228;-58
2024/04/08 08:38:06;;;;;;;7.00;5.03;;;43.00;26.60;;;;;;6860444;25;20226;-58
2024/04/08 08:41:13;;;;;;;7.45;5.63;;;42.90;26.30;;;;;;6891547;25;20314;-58
2024/04/08 08:44:19;;;;;;;5.95;5.43;;;40.80;27.30;;;;;;6907579;25;20232;-59
2024/04/08 08:47:31;;;;;;;8.63;5.07;;;39.20;29.10;;;;;;6907797;25;20224;-59
2024/04/08 08:50:56;;;;;;;7.22;4.93;;;39.00;29.30;;;;;;6906301;25;20220;-59
2024/04/08 08:54:02;;;;;;;4.95;4.40;;;37.90;30.20;;;;;;6904690;25;20232;-63
2024/04/08 08:57:12;;;;;;;7.50;4.47;;;38.60;30.10;;;;;;6884711;25;20340;-62
2024/04/08 09:00:16;;;;;;;6.30;5.10;;;39.60;29.20;;;;;;6884712;25;20365;-62
2024/04/08 09:03:33;;;;;;;12.18;5.82;;;40.20;28.80;;;;;;6878249;25;20286;-62
2024/04/08 09:06:54;;;;;;;8.63;5.50;;;41.00;27.90;;;;;;6877864;25;20289;-62
2024/04/08 09:10:02;;;;;;;5.82;5.32;;;42.10;27.20;;;;;;6935356;25;20237;-62
2024/04/08 09:13:19;;;;;;;5.93;5.30;;;42.00;26.90;;;;;;6857862;26;20221;-62
2024/04/08 09:16:36;;;;;;;9.65;5.60;;;41.90;27.50;;;;;;6858449;26;20297;-61
2024/04/08 09:19:39;;;;;;;6.53;5.75;;;43.30;26.30;;;;;;6859212;26;20238;-61
2024/04/08 09:23:03;;;;;;;5.68;5.18;;;43.60;25.60;;;;;;6900064;25;20280;-61
2024/04/08 09:26:10;;;;;;;5.97;5.35;;;43.40;25.70;;;;;;6880649;25;20234;-63
2024/04/08 09:29:26;;;;;;;7.35;5.00;;;42.10;25.90;;;;;;6908199;25;20302;-61
2024/04/08 09:32:34;;;;;;;5.25;4.70;;;42.40;25.80;;;;;;6878713;25;20322;-60
2024/04/08 09:35:39;;;;;;;6.82;4.70;;;42.00;26.60;;;;;;6861117;26;20241;-63
2024/04/08 09:39:06;;;;;;;4.45;4.05;;;42.30;25.50;;;;;;6860825;26;20728;-63
2024/04/08 09:42:18;;;;;;;4.45;4.05;;;43.50;23.80;;;;;;6892919;25;20662;-63
2024/04/08 09:45:22;;;;;;;4.10;3.75;;;44.60;23.50;;;;;;6904817;25;20232;-65
2024/04/08 09:48:31;;;;;;;6.75;4.03;;;44.90;22.90;;;;;;6905255;25;20266;-65
2024/04/08 09:51:47;;;;;;;4.80;3.72;;;45.40;22.00;;;;;;6886814;25;20242;-63
2024/04/08 09:55:09;;;;;;;4.80;3.80;;;47.10;20.50;;;;;;6858480;26;20669;-64
2024/04/08 09:58:16;;;;;;;4.78;4.38;;;47.50;20.20;;;;;;6858178;26;20270;-63
2024/04/08 10:01:22;;;;;;;4.10;3.63;;;47.90;19.80;;;;;;6862143;25;20511;-64
2024/04/08 10:04:32;;;;;;;4.47;4.05;;;48.70;19.60;;;;;;6905540;25;20715;-63
2024/04/08 10:07:39;;;;;;;4.72;4.03;;;49.90;18.60;;;;;;6905983;25;20573;-65
2024/04/08 10:11:03;;;;;;;4.07;3.78;;;50.40;17.30;;;;;;6904168;25;20230;-64
2024/04/08 10:14:15;;;;;;;4.55;3.47;;;49.40;17.50;;;;;;6898307;25;20514;-64
2024/04/08 10:17:24;;;;;;;5.72;3.80;;;49.00;18.00;;;;;;6896059;25;20239;-64
2024/04/08 10:20:31;;;;;;;3.55;3.30;;;50.50;17.10;;;;;;6870753;25;20236;-64
2024/04/08 10:23:39;;;;;;;4.28;3.42;;;52.60;16.30;;;;;;6893243;25;20303;-64
2024/04/08 10:27:06;;;;;;;4.03;3.72;;;52.50;15.70;;;;;;6904767;25;20233;-65
2024/04/08 10:30:18;;;;;;;3.15;2.85;;;52.90;15.70;;;;;;6907161;25;20232;-64
2024/04/08 10:33:25;;;;;;;4.78;3.80;;;51.20;15.70;;;;;;6896326;25;20344;-64
2024/04/08 10:36:32;;;;;;;3.88;3.58;;;51.00;16.00;;;;;;6897095;25;20675;-65
2024/04/08 10:39:48;;;;;;;4.00;3.70;;;50.90;16.70;;;;;;6902479;25;20407;-65
2024/04/08 10:43:08;;;;;;;3.88;3.58;;;53.50;15.00;;;;;;6904061;25;20235;-64
2024/04/08 10:46:20;;;;;;;4.32;3.90;;;55.80;14.20;;;;;;6903342;25;20239;-65
2024/04/08 10:49:25;;;;;;;4.35;3.33;;;53.50;14.20;;;;;;6867579;25;20875;-64
2024/04/08 10:52:37;;;;;;;4.38;4.05;;;52.30;15.50;;;;;;6902899;25;20321;-65
2024/04/08 10:55:40;;;;;;;6.28;4.18;;;52.80;15.20;;;;;;6903564;25;20327;-65
2024/04/08 10:58:48;;;;;;;4.35;3.95;;;53.50;14.90;;;;;;6887092;25;20338;-66
2024/04/08 11:01:54;;;;;;;5.05;4.57;;;53.10;14.70;;;;;;6905429;25;20312;-64
2024/04/08 11:05:05;;;;;;;6.97;4.93;;;51.40;15.30;;;;;;6903539;25;20331;-65
2024/04/08 11:08:18;;;;;;;5.18;4.78;;;50.80;15.90;;;;;;6889470;25;20344;-64
2024/04/08 11:11:26;;;;;;;4.80;4.40;;;50.70;16.20;;;;;;6893357;25;20706;-65
2024/04/08 11:14:50;;;;;;;5.25;4.65;;;52.10;15.80;;;;;;6903443;25;20325;-64
2024/04/08 11:17:56;;;;;;;4.45;4.03;;;51.20;15.70;;;;;;6898119;25;20628;-64
2024/04/08 11:21:10;;;;;;;4.47;3.88;;;51.20;15.70;;;;;;6902775;25;20240;-64
2024/04/08 11:24:15;;;;;;;4.53;3.72;;;49.40;16.30;;;;;;6894011;25;20230;-62
2024/04/08 11:27:26;;;;;;;3.90;3.65;;;48.20;17.10;;;;;;6902842;25;20595;-63
2024/04/08 11:30:43;;;;;;;4.80;4.40;;;47.20;17.60;;;;;;6903361;25;20270;-63
2024/04/08 11:37:21;;;;;;;4.35;3.95;;;45.80;18.30;;;;;;6905028;25;20289;-63
2024/04/08 11:40:32;;;;;;;4.68;4.22;;;43.70;20.00;;;;;;6872215;25;20224;-63
2024/04/08 11:43:39;;;;;;;6.95;3.75;;;43.80;20.10;;;;;;6893109;25;20301;-63
2024/04/08 11:46:51;;;;;;;4.63;4.32;;;43.00;20.40;;;;;;6884347;25;20277;-62
2024/04/08 11:50:01;;;;;;;4.45;4.05;;;43.00;21.00;;;;;;6898734;25;20244;-64
2024/04/08 11:53:06;;;;;;;4.40;4.00;;;43.40;20.70;;;;;;6903326;25;20232;-63
2024/04/08 11:56:19;;;;;;;4.78;4.47;;;43.30;20.40;;;;;;6861995;25;20492;-62
2024/04/08 11:59:24;;;;;;;4.47;3.72;;;42.60;20.60;;;;;;6855959;26;20327;-63
2024/04/08 12:02:45;;;;;;;4.30;4.00;;;41.00;21.70;;;;;;6855935;26;20579;-63
2024/04/08 12:05:48;;;;;;;4.28;3.97;;;40.00;22.00;;;;;;6855282;26;20279;-63
2024/04/08 12:09:12;;;;;;;3.80;3.50;;;38.90;22.90;;;;;;6854904;26;20263;-62
2024/04/08 12:12:18;;;;;;;4.60;3.40;;;37.40;24.00;;;;;;6874402;25;20301;-63
2024/04/08 12:15:25;;;;;;;3.92;3.58;;;36.80;25.00;;;;;;6901011;25;20240;-63
2024/04/08 12:18:39;;;;;;;4.18;3.67;;;37.10;24.50;;;;;;6901307;25;20265;-63
2024/04/08 12:21:45;;;;;;;4.53;4.13;;;36.80;24.90;;;;;;6902008;25;20232;-63
2024/04/08 12:24:59;;;;;;;6.20;4.05;;;36.50;25.50;;;;;;6890978;25;20527;-63
2024/04/08 12:28:03;;;;;;;4.63;4.22;;;36.40;25.60;;;;;;6900848;25;20229;-63
2024/04/08 12:31:17;;;;;;;6.18;3.78;;;36.20;25.70;;;;;;6893658;25;20248;-63
2024/04/08 12:34:23;;;;;;;4.47;3.97;;;36.00;26.10;;;;;;6868204;25;20292;-63
2024/04/08 12:37:31;;;;;;;3.83;3.47;;;35.50;27.10;;;;;;6873740;25;20228;-63
2024/04/08 12:40:35;;;;;;;5.10;4.60;;;35.40;27.20;;;;;;6881496;25;20585;-62
2024/04/08 12:43:44;;;;;;;5.63;4.88;;;35.30;27.20;;;;;;6863176;25;20321;-64
2024/04/08 12:46:58;;;;;;;4.45;4.05;;;35.10;27.60;;;;;;6907504;25;20328;-64
2024/04/08 12:50:32;;;;;;;6.63;4.10;;;34.70;27.50;;;;;;6905990;25;20339;-64
2024/04/08 12:53:43;;;;;;;4.22;3.83;;;34.40;28.00;;;;;;6879019;25;20796;-62
2024/04/08 12:56:51;;;;;;;4.43;4.03;;;34.10;28.40;;;;;;6907784;25;20275;-63
2024/04/08 12:59:56;;;;;;;4.72;4.40;;;33.90;28.90;;;;;;6906166;25;20224;-64
2024/04/08 13:03:12;;;;;;;4.30;3.95;;;33.60;28.90;;;;;;6859924;26;20229;-64
2024/04/08 13:06:34;;;;;;;5.45;5.03;;;33.30;29.00;;;;;;6859744;26;20586;-65
2024/04/08 13:09:51;;;;;;;6.25;4.03;;;33.10;29.50;;;;;;6895873;25;20257;-66
2024/04/08 13:13:04;;;;;;;5.47;4.60;;;33.20;29.80;;;;;;6869028;25;20271;-65
2024/04/08 13:16:08;;;;;;;4.80;4.40;;;33.40;29.50;;;;;;6874952;25;20237;-65
2024/04/08 13:19:35;;;;;;;5.75;5.07;;;33.50;29.50;;;;;;6858473;26;20272;-65
2024/04/08 13:22:56;;;;;;;8.20;5.10;;;33.70;29.20;;;;;;6858399;26;20221;-66
2024/04/08 13:26:05;;;;;;;4.50;4.15;;;33.60;28.70;;;;;;6857056;26;20378;-65
2024/04/08 13:29:13;;;;;;;5.63;4.78;;;33.50;29.00;;;;;;6859809;26;20245;-63
2024/04/08 13:32:21;;;;;;;6.93;4.30;;;33.60;28.80;;;;;;6862537;25;20325;-63
2024/04/08 13:35:28;;;;;;;6.10;4.20;;;33.20;29.40;;;;;;6861286;26;20300;-65
2024/04/08 13:38:48;;;;;;;4.30;3.90;;;33.30;29.70;;;;;;6859715;25;20244;-64
2024/04/08 13:41:57;;;;;;;5.65;4.20;;;33.40;29.40;;;;;;6858491;26;20688;-66
2024/04/08 13:45:05;;;;;;;5.47;4.18;;;33.50;29.20;;;;;;6882612;25;20409;-63
2024/04/08 13:48:09;;;;;;;7.20;4.18;;;33.30;29.40;;;;;;6877528;25;20260;-63
2024/04/08 13:51:16;;;;;;;5.05;4.55;;;32.90;29.40;;;;;;6885286;25;20233;-63
2024/04/08 13:54:37;;;;;;;4.97;4.35;;;32.60;29.90;;;;;;6904062;25;20259;-63
2024/04/08 13:57:42;;;;;;;7.53;4.35;;;32.10;30.20;;;;;;6904596;25;20459;-64
2024/04/08 14:00:49;;;;;;;4.60;3.70;;;31.70;30.60;;;;;;6904946;25;20278;-63
2024/04/08 14:04:03;;;;;;;7.05;3.72;;;31.30;30.60;;;;;;6891874;25;20232;-64
2024/04/08 14:07:17;;;;;;;5.68;3.70;;;31.00;32.00;;;;;;6891491;25;20228;-63
2024/04/08 14:10:33;;;;;;;4.28;2.97;;;30.70;31.40;;;;;;6874364;25;20662;-63
2024/04/08 14:13:39;;;;;;;6.60;3.33;;;30.60;31.00;;;;;;6883431;25;20236;-64
2024/04/08 14:16:54;;;;;;;10.50;3.83;;;30.40;31.30;;;;;;6873317;25;20235;-67
2024/04/08 14:20:01;;;;;;;4.15;3.30;;;30.30;32.00;;;;;;6902539;25;20682;-58
2024/04/08 14:23:06;;;;;;;4.57;3.00;;;30.20;32.50;;;;;;6903168;25;20414;-62
2024/04/08 14:26:31;;;;;;;5.53;4.03;;;29.50;31.50;;;;;;6902935;25;20240;-63
2024/04/08 14:29:35;;;;;;;3.92;3.63;;;29.40;32.50;;;;;;6857324;26;20333;-63
2024/04/08 14:32:57;;;;;;;5.93;3.58;;;29.40;33.00;;;;;;6864451;25;20555;-61
2024/04/08 14:36:01;;;;;;;4.32;3.40;;;29.40;32.90;;;;;;6902879;25;20232;-63
2024/04/08 14:39:08;;;;;;;3.00;2.27;;;29.30;33.00;;;;;;6901625;25;20263;-62
2024/04/08 14:42:45;;;;;;;4.10;3.20;;;29.20;32.90;;;;;;6865638;25;20230;-64
2024/04/08 14:45:52;;;;;;;2.93;2.73;;;29.00;31.80;;;;;;6886854;25;20241;-62
2024/04/08 14:48:57;;;;;;;5.57;4.15;;;29.00;33.40;;;;;;6887632;25;20248;-60
2024/04/08 14:52:14;;;;;;;4.37;3.50;;;29.00;34.10;;;;;;6899564;25;20236;-61
2024/04/08 14:55:37;;;;;;;7.00;3.60;;;28.90;34.80;;;;;;6899071;25;20366;-64
2024/04/08 14:59:03;;;;;;;4.37;3.97;;;28.90;35.20;;;;;;6896385;25;20236;-63
2024/04/08 15:02:17;;;;;;;4.43;4.03;;;28.70;35.30;;;;;;6898980;25;20768;-61
2024/04/08 15:05:24;;;;;;;5.80;3.30;;;28.50;35.80;;;;;;6901845;25;20236;-63
2024/04/08 15:08:42;;;;;;;6.23;3.43;;;28.50;35.70;;;;;;6898910;25;20279;-60
2024/04/08 15:11:50;;;;;;;4.00;3.37;;;28.30;35.30;;;;;;6897974;25;20274;-59
2024/04/08 15:14:55;;;;;;;4.70;3.27;;;28.20;35.70;;;;;;6903322;25;20629;-59
2024/04/08 15:18:11;;;;;;;4.67;3.03;;;27.90;35.30;;;;;;6902627;25;20232;-59
2024/04/08 15:21:16;;;;;;;5.30;3.63;;;27.80;36.20;;;;;;6882166;25;20552;-61
2024/04/08 15:24:28;;;;;;;4.90;3.50;;;27.80;36.60;;;;;;6902776;25;22347;-63
2024/04/08 15:27:32;;;;;;;3.43;2.87;;;28.00;36.20;;;;;;6901212;25;20283;-63
2024/04/08 15:30:46;;;;;;;3.60;3.30;;;27.90;36.40;;;;;;6898722;25;20236;-63
2024/04/08 15:33:54;;;;;;;6.50;4.00;;;28.00;37.20;;;;;;6907533;25;20286;-61
2024/04/08 15:37:09;;;;;;;4.63;3.30;;;28.10;37.50;;;;;;6904442;25;20338;-63
2024/04/08 15:40:25;;;;;;;4.57;4.10;;;27.90;37.10;;;;;;6865912;25;20633;-63
2024/04/08 15:43:30;;;;;;;4.33;3.57;;;27.80;36.80;;;;;;6858865;25;20218;-62
2024/04/08 15:46:54;;;;;;;3.57;3.27;;;27.70;36.70;;;;;;6902191;25;20228;-62
2024/04/08 15:49:59;;;;;;;4.63;3.57;;;27.70;38.00;;;;;;6901094;25;20279;-64
2024/04/08 15:53:21;;;;;;;5.83;3.60;;;27.70;37.40;;;;;;6898771;25;20236;-64
2024/04/08 15:56:24;;;;;;;6.90;3.67;;;27.50;38.90;;;;;;6902336;25;20736;-63
2024/04/08 15:59:31;;;;;;;5.70;3.13;;;27.50;38.30;;;;;;6902691;25;20224;-63
2024/04/08 16:02:44;;;;;;;9.27;3.50;;;27.50;38.50;;;;;;6901528;25;20654;-63
2024/04/08 16:05:52;;;;;;;4.60;3.80;;;27.30;39.30;;;;;;6882964;25;20291;-63
2024/04/08 16:08:56;;;;;;;5.70;4.20;;;27.10;39.90;;;;;;6856625;26;21024;-64
2024/04/08 16:12:12;;;;;;;4.60;3.63;;;26.90;40.30;;;;;;6854691;26;20217;-65
2024/04/08 16:15:18;;;;;;;5.30;3.70;;;26.90;40.70;;;;;;6857339;25;20743;-64
2024/04/08 16:18:44;;;;;;;5.27;3.27;;;26.80;38.60;;;;;;6853189;26;20237;-64
2024/04/08 16:21:50;;;;;;;4.93;2.60;;;26.60;33.20;;;;;;6858040;26;20290;-64
2024/04/08 16:25:06;;;;;;;4.43;2.90;;;26.50;29.30;;;;;;6855107;25;20252;-64
2024/04/08 16:28:10;;;;;;;16.20;3.50;;;26.30;27.40;;;;;;6860804;26;20606;-63
2024/04/08 16:31:26;;;;;;;7.97;3.23;;;26.20;27.70;;;;;;6883842;25;20751;-63
2024/04/08 16:34:48;;;;;;;9.60;2.63;;;26.10;27.80;;;;;;6888209;25;20236;-63
2024/04/08 16:37:53;;;;;;;3.17;2.20;;;26.10;27.80;;;;;;6901955;25;20333;-64